createdAt,value
2023-04-08T00:00:09.586Z,21.77
2023-04-08T00:02:38.103Z,21.75
2023-04-08T00:05:06.957Z,22.52
2023-04-08T00:07:36.128Z,20.70
2023-04-08T00:10:04.594Z,21.63
2023-04-08T00:12:34.667Z,21.83
2023-04-08T00:15:03.123Z,22.92
2023-04-08T00:17:31.846Z,21.95
2023-04-08T00:20:00.566Z,21.67
2023-04-08T00:22:28.984Z,22.50
2023-04-08T00:24:57.471Z,19.98
2023-04-08T00:27:26.258Z,20.45
2023-04-08T00:29:56.101Z,21.17
2023-04-08T00:32:24.569Z,21.45
2023-04-08T00:34:53.015Z,21.27
2023-04-08T00:37:23.236Z,19.83
2023-04-08T00:39:53.296Z,20.58
2023-04-08T00:42:22.235Z,21.83
2023-04-08T00:44:50.767Z,21.58
2023-04-08T00:47:20.603Z,21.17
2023-04-08T00:49:49.180Z,21.00
2023-04-08T00:52:17.660Z,22.27
2023-04-08T00:54:46.291Z,21.80
2023-04-08T00:57:14.754Z,22.73
2023-04-08T00:59:43.710Z,21.95
2023-04-08T01:02:16.579Z,22.55
2023-04-08T01:04:52.517Z,23.80
2023-04-08T01:07:22.606Z,22.90
2023-04-08T01:09:53.763Z,23.08
2023-04-08T01:12:23.788Z,23.08
2023-04-08T01:14:53.500Z,23.48
2023-04-08T01:17:24.225Z,22.10
2023-04-08T01:19:54.401Z,22.20
2023-04-08T01:22:28.189Z,21.85
2023-04-08T01:24:59.768Z,23.35
2023-04-08T01:27:30.478Z,21.33
2023-04-08T01:29:59.062Z,22.63
2023-04-08T01:32:28.479Z,21.77
2023-04-08T01:34:58.602Z,20.10
2023-04-08T01:37:27.357Z,23.52
2023-04-08T01:39:56.162Z,22.15
2023-04-08T01:42:25.988Z,22.42
2023-04-08T01:44:57.366Z,21.55
2023-04-08T01:47:26.878Z,21.60
2023-04-08T01:49:55.691Z,20.48
2023-04-08T01:52:24.864Z,21.98
2023-04-08T01:54:53.376Z,20.58
2023-04-08T01:57:24.699Z,20.40
2023-04-08T01:59:54.549Z,20.65
2023-04-08T02:02:25.833Z,20.85
2023-04-08T02:04:55.195Z,20.88
2023-04-08T02:07:23.625Z,20.98
2023-04-08T02:09:52.101Z,20.63
2023-04-08T02:12:21.092Z,21.05
2023-04-08T02:14:49.580Z,20.75
2023-04-08T02:17:21.613Z,21.02
2023-04-08T02:19:55.004Z,22.00
2023-04-08T02:22:27.692Z,23.80
2023-04-08T02:24:56.494Z,23.73
2023-04-08T02:27:26.749Z,23.92
2023-04-08T02:29:57.128Z,21.70
2023-04-08T02:32:25.948Z,23.05
2023-04-08T02:34:56.585Z,22.52
2023-04-08T02:37:25.021Z,22.13
2023-04-08T02:39:53.484Z,21.95
2023-04-08T02:42:21.939Z,21.95
2023-04-08T02:44:50.451Z,21.90
2023-04-08T02:47:19.041Z,22.30
2023-04-08T02:49:47.552Z,22.52
2023-04-08T02:52:17.361Z,20.98
2023-04-08T02:54:45.812Z,19.85
2023-04-08T02:57:14.253Z,23.05
2023-04-08T02:59:42.701Z,22.33
2023-04-08T03:02:11.429Z,21.77
2023-04-08T03:04:40.070Z,22.95
2023-04-08T03:07:08.746Z,22.77
2023-04-08T03:09:38.763Z,21.10
2023-04-08T03:12:07.410Z,22.25
2023-04-08T03:14:36.170Z,23.30
2023-04-08T03:17:04.601Z,22.42
2023-04-08T03:19:33.031Z,20.27
2023-04-08T03:22:01.450Z,21.67
2023-04-08T03:24:29.955Z,21.73
2023-04-08T03:26:59.889Z,21.10
2023-04-08T03:29:28.351Z,20.02
2023-04-08T03:31:56.943Z,20.00
2023-04-08T03:34:25.401Z,19.60
2023-04-08T03:36:53.805Z,19.25
2023-04-08T03:39:22.240Z,19.73
2023-04-08T03:41:50.708Z,18.17
2023-04-08T03:44:20.548Z,20.80
2023-04-08T03:46:48.996Z,20.88
2023-04-08T03:49:17.441Z,19.25
2023-04-08T03:51:45.900Z,19.80
2023-04-08T03:54:14.404Z,18.42
2023-04-08T03:56:42.842Z,18.88
2023-04-08T03:59:11.320Z,17.85
2023-04-08T04:01:42.078Z,20.20
2023-04-08T04:04:10.962Z,19.27
2023-04-08T04:06:39.755Z,19.23
2023-04-08T04:09:08.181Z,18.05
2023-04-08T04:11:36.837Z,18.10
2023-04-08T04:14:05.486Z,19.83
2023-04-08T04:16:33.902Z,19.85
2023-04-08T04:19:03.877Z,19.17
2023-04-08T04:21:32.416Z,18.27
2023-04-08T04:24:00.834Z,23.48
2023-04-08T04:26:29.249Z,28.90
2023-04-08T04:28:57.704Z,22.88
2023-04-08T04:31:27.333Z,22.42
2023-04-08T04:33:56.121Z,22.50
2023-04-08T04:36:26.513Z,24.98
2023-04-08T04:38:55.227Z,22.75
2023-04-08T04:41:23.968Z,23.70
2023-04-08T04:43:52.448Z,22.83
2023-04-08T04:46:20.947Z,24.35
2023-04-08T04:48:49.630Z,23.25
2023-04-08T04:51:18.235Z,22.20
2023-04-08T04:53:49.219Z,24.98
2023-04-08T04:56:17.814Z,26.50
2023-04-08T04:58:46.442Z,26.10
2023-04-08T05:01:14.867Z,25.27
2023-04-08T05:03:43.420Z,26.55
2023-04-08T05:06:11.939Z,30.27
2023-04-08T05:08:40.382Z,28.25
2023-04-08T05:11:12.604Z,27.77
2023-04-08T05:13:41.207Z,30.63
2023-04-08T05:16:10.632Z,30.15
2023-04-08T05:18:39.148Z,27.25
2023-04-08T05:21:07.595Z,29.25
2023-04-08T05:23:36.524Z,28.83
2023-04-08T05:26:05.043Z,29.25
2023-04-08T05:28:34.893Z,27.50
2023-04-08T05:31:03.325Z,26.42
2023-04-08T05:33:31.874Z,27.70
2023-04-08T05:36:00.368Z,25.92
2023-04-08T05:38:28.961Z,27.58
2023-04-08T05:40:57.622Z,27.60
2023-04-08T05:43:26.236Z,29.30
2023-04-08T05:45:56.129Z,27.35
2023-04-08T05:48:24.562Z,29.55
2023-04-08T05:50:53.040Z,28.00
2023-04-08T05:53:21.544Z,32.65
2023-04-08T05:55:50.104Z,27.42
2023-04-08T05:58:18.631Z,33.38
2023-04-08T06:00:47.062Z,29.60
2023-04-08T06:03:19.705Z,30.17
2023-04-08T06:05:49.048Z,29.42
2023-04-08T06:08:17.574Z,26.13
2023-04-08T06:10:51.099Z,29.00
2023-04-08T06:13:21.093Z,28.88
2023-04-08T06:15:50.302Z,29.60
2023-04-08T06:18:20.130Z,28.60
2023-04-08T06:20:48.694Z,28.52
2023-04-08T06:23:17.136Z,33.05
2023-04-08T06:25:46.329Z,30.95
2023-04-08T06:28:14.793Z,38.95
2023-04-08T06:30:43.201Z,31.73
2023-04-08T06:33:11.813Z,44.38
2023-04-08T06:35:41.877Z,38.40
2023-04-08T06:38:10.456Z,37.47
2023-04-08T06:40:40.540Z,37.83
2023-04-08T06:43:09.108Z,42.38
2023-04-08T06:45:37.642Z,40.38
2023-04-08T06:48:06.906Z,46.20
2023-04-08T06:50:35.400Z,47.30
2023-04-08T06:53:05.318Z,48.95
2023-04-08T06:55:33.922Z,47.50
2023-04-08T06:58:02.765Z,46.25
2023-04-08T07:00:31.528Z,47.20
2023-04-08T07:03:00.014Z,49.28
2023-04-08T07:05:28.495Z,49.03
2023-04-08T07:07:57.034Z,49.67
2023-04-08T07:10:26.875Z,51.97
2023-04-08T07:12:55.811Z,47.47
2023-04-08T07:15:24.431Z,47.50
2023-04-08T07:17:52.893Z,45.75
2023-04-08T07:20:21.835Z,44.60
2023-04-08T07:22:50.299Z,40.17
2023-04-08T07:25:18.735Z,41.95
2023-04-08T07:27:48.627Z,42.70
2023-04-08T07:30:17.128Z,40.97
2023-04-08T07:32:45.642Z,40.80
2023-04-08T07:35:14.339Z,39.75
2023-04-08T07:37:42.806Z,41.47
2023-04-08T07:40:11.916Z,41.47
2023-04-08T07:42:40.876Z,42.08
2023-04-08T07:45:11.685Z,40.75
2023-04-08T07:47:40.682Z,40.22
2023-04-08T07:50:09.898Z,41.10
2023-04-08T07:52:38.409Z,41.20
2023-04-08T07:55:07.423Z,40.17
2023-04-08T07:57:36.014Z,43.58
2023-04-08T08:00:04.904Z,44.25
2023-04-08T08:02:36.088Z,43.88
2023-04-08T08:05:04.680Z,47.33
2023-04-08T08:07:33.237Z,47.78
2023-04-08T08:10:01.942Z,48.92
2023-04-08T08:12:30.391Z,50.03
2023-04-08T08:14:59.569Z,51.65
2023-04-08T08:17:30.294Z,57.50
2023-04-08T08:20:00.148Z,56.60
2023-04-08T08:22:28.752Z,56.72
2023-04-08T08:24:57.926Z,56.67
2023-04-08T08:27:26.372Z,55.35
2023-04-08T08:29:54.781Z,55.42
2023-04-08T08:32:23.249Z,58.33
2023-04-08T08:34:51.688Z,54.67
2023-04-08T08:37:21.507Z,54.33
2023-04-08T08:39:50.253Z,58.60
2023-04-08T08:42:22.740Z,62.47
2023-04-08T08:44:51.673Z,63.78
2023-04-08T08:47:20.457Z,63.38
2023-04-08T08:49:50.143Z,62.33
2023-04-08T08:52:18.863Z,62.08
2023-04-08T08:54:48.995Z,60.72
2023-04-08T08:57:20.527Z,62.47
2023-04-08T08:59:49.236Z,57.90
2023-04-08T09:02:28.541Z,57.33
2023-04-08T09:05:01.373Z,54.50
2023-04-08T09:07:30.498Z,49.22
2023-04-08T09:10:01.129Z,49.85
2023-04-08T09:12:31.332Z,48.20
2023-04-08T09:15:06.368Z,44.38
2023-04-08T09:17:35.148Z,43.90
2023-04-08T09:20:09.883Z,46.05
2023-04-08T09:22:56.659Z,42.13
2023-04-08T09:25:26.876Z,42.13
2023-04-08T09:27:55.640Z,40.88
2023-04-08T09:30:25.090Z,40.90
2023-04-08T09:32:54.195Z,36.70
2023-04-08T09:35:23.050Z,33.25
2023-04-08T09:37:51.940Z,31.65
2023-04-08T09:40:20.638Z,34.97
2023-04-08T09:42:53.590Z,35.00
2023-04-08T09:45:22.088Z,35.00
2023-04-08T09:47:58.279Z,36.08
2023-04-08T09:50:29.703Z,35.42
2023-04-08T09:53:02.468Z,32.25
2023-04-08T09:55:33.522Z,31.67
2023-04-08T09:58:04.868Z,29.90
2023-04-08T10:00:37.489Z,27.95
2023-04-08T10:03:12.221Z,26.65
2023-04-08T10:05:42.807Z,25.15
2023-04-08T10:08:11.966Z,23.98
2023-04-08T10:10:41.830Z,23.42
2023-04-08T10:13:11.990Z,20.45
2023-04-08T10:15:43.236Z,21.42
2023-04-08T10:18:33.419Z,21.73
2023-04-08T10:21:02.438Z,21.38
2023-04-08T10:23:45.923Z,19.20
2023-04-08T10:26:31.975Z,17.45
2023-04-08T10:31:54.888Z,15.80
2023-04-08T10:34:24.888Z,16.02
2023-04-08T10:36:53.332Z,14.88
2023-04-08T10:39:21.781Z,15.48
2023-04-08T10:41:51.053Z,13.55
2023-04-08T10:44:19.987Z,12.57
2023-04-08T10:46:48.965Z,11.30
2023-04-08T10:49:18.977Z,10.93
2023-04-08T10:51:47.959Z,10.35
2023-04-08T10:54:17.532Z,10.63
2023-04-08T10:56:46.942Z,9.90
2023-04-08T10:59:17.558Z,11.18
2023-04-08T11:01:47.310Z,10.95
2023-04-08T11:04:16.872Z,10.30
2023-04-08T11:06:47.533Z,11.10
2023-04-08T11:09:16.518Z,10.75
2023-04-08T11:11:45.660Z,10.15
2023-04-08T11:14:14.175Z,10.68
2023-04-08T11:16:42.935Z,10.27
2023-04-08T11:19:11.373Z,11.25
2023-04-08T11:21:39.974Z,11.07
2023-04-08T11:24:11.973Z,10.98
2023-04-08T11:26:40.517Z,11.05
2023-04-08T11:29:12.775Z,11.57
2023-04-08T11:31:41.373Z,10.05
2023-04-08T11:34:10.495Z,10.23
2023-04-08T11:36:38.962Z,10.65
2023-04-08T11:39:12.684Z,10.40
2023-04-08T11:41:41.447Z,10.90
2023-04-08T11:44:10.019Z,10.38
2023-04-08T11:46:40.269Z,10.48
2023-04-08T11:49:10.093Z,10.30
2023-04-08T11:51:55.720Z,10.95
2023-04-08T11:54:32.302Z,11.27
2023-04-08T11:57:03.036Z,11.52
2023-04-08T11:59:31.514Z,10.63
2023-04-08T12:02:00.183Z,10.52
2023-04-08T12:04:28.965Z,10.52
2023-04-08T12:06:58.427Z,10.30
2023-04-08T12:09:27.325Z,10.43
2023-04-08T12:11:57.604Z,10.20
2023-04-08T12:14:28.330Z,10.20
2023-04-08T12:16:57.272Z,9.82
2023-04-08T12:19:25.766Z,10.10
2023-04-08T12:21:54.217Z,10.35
2023-04-08T12:24:22.667Z,9.93
2023-04-08T12:26:51.252Z,10.45
2023-04-08T12:29:21.068Z,10.10
2023-04-08T12:31:49.686Z,9.38
2023-04-08T12:34:18.181Z,9.18
2023-04-08T12:36:47.571Z,8.95
2023-04-08T12:39:16.162Z,9.40
2023-04-08T12:41:44.721Z,8.45
2023-04-08T12:44:13.133Z,9.02
2023-04-08T12:46:42.991Z,7.25
2023-04-08T12:49:12.240Z,6.80
2023-04-08T12:51:40.792Z,6.22
2023-04-08T12:54:09.204Z,7.03
2023-04-08T12:56:39.129Z,6.22
2023-04-08T12:59:07.667Z,6.68
2023-04-08T13:01:36.507Z,6.70
2023-04-08T13:04:06.462Z,6.72
2023-04-08T13:06:34.997Z,6.55
2023-04-08T13:09:03.416Z,7.10
2023-04-08T13:11:34.055Z,7.20
2023-04-08T13:14:02.496Z,7.75
2023-04-08T13:16:31.050Z,7.50
2023-04-08T13:18:59.531Z,7.18
2023-04-08T13:21:29.309Z,7.35
2023-04-08T13:23:57.750Z,8.05
2023-04-08T13:26:26.558Z,8.70
2023-04-08T13:28:57.801Z,9.15
2023-04-08T13:31:26.932Z,9.48
2023-04-08T13:33:57.675Z,9.23
2023-04-08T13:36:28.708Z,8.38
2023-04-08T13:38:59.174Z,7.93
2023-04-08T13:41:28.265Z,9.13
2023-04-08T13:43:56.871Z,9.77
2023-04-08T13:46:25.786Z,10.48
2023-04-08T13:48:54.820Z,10.60
2023-04-08T13:51:23.500Z,11.57
2023-04-08T13:53:52.076Z,11.73
2023-04-08T13:56:22.122Z,11.55
2023-04-08T13:58:56.805Z,11.88
2023-04-08T14:01:26.278Z,11.07
2023-04-08T14:03:54.803Z,12.88
2023-04-08T14:06:23.334Z,15.10
2023-04-08T14:08:51.962Z,14.00
2023-04-08T14:11:22.423Z,13.80
2023-04-08T14:13:51.096Z,12.93
2023-04-08T14:16:19.893Z,11.85
2023-04-08T14:18:48.626Z,12.98
2023-04-08T14:21:18.237Z,13.55
2023-04-08T14:23:46.793Z,14.05
2023-04-08T14:26:16.053Z,14.73
2023-04-08T14:28:45.943Z,13.65
2023-04-08T14:31:14.404Z,13.38
2023-04-08T14:33:43.337Z,13.43
2023-04-08T14:36:12.123Z,12.40
2023-04-08T14:38:40.889Z,12.13
2023-04-08T14:41:09.321Z,12.50
2023-04-08T14:43:37.898Z,12.63
2023-04-08T14:46:08.019Z,13.32
2023-04-08T14:48:36.597Z,14.13
2023-04-08T14:51:05.080Z,14.70
2023-04-08T14:53:33.535Z,14.23
2023-04-08T14:56:01.993Z,14.43
2023-04-08T14:58:30.497Z,13.88
2023-04-08T15:00:58.954Z,14.57
2023-04-08T15:03:28.935Z,15.02
2023-04-08T15:05:57.586Z,15.05
2023-04-08T15:08:26.145Z,15.00
2023-04-08T15:10:54.574Z,16.60
2023-04-08T15:13:23.027Z,16.42
2023-04-08T15:15:51.796Z,16.02
2023-04-08T15:18:20.515Z,16.10
2023-04-08T15:20:50.327Z,16.50
2023-04-08T15:23:19.025Z,15.70
2023-04-08T15:25:48.454Z,15.52
2023-04-08T15:28:17.044Z,16.00
2023-04-08T15:30:45.606Z,15.38
2023-04-08T15:33:14.152Z,14.43
2023-04-08T15:35:42.665Z,15.07
2023-04-08T15:38:12.567Z,15.50
2023-04-08T15:40:41.099Z,16.35
2023-04-08T15:43:10.793Z,16.65
2023-04-08T15:45:44.178Z,16.77
2023-04-08T15:48:13.296Z,16.35
2023-04-08T15:50:42.226Z,17.27
2023-04-08T15:53:12.189Z,17.40
2023-04-08T15:55:40.970Z,17.77
2023-04-08T15:58:09.452Z,17.65
2023-04-08T16:00:37.876Z,16.58
2023-04-08T16:03:08.877Z,18.55
2023-04-08T16:05:39.700Z,18.52
2023-04-08T16:08:08.272Z,18.88
2023-04-08T16:10:38.376Z,18.25
2023-04-08T16:13:07.651Z,17.63
2023-04-08T16:15:37.082Z,20.13
2023-04-08T16:18:06.438Z,22.77
2023-04-08T16:20:35.214Z,21.95
2023-04-08T16:23:03.685Z,20.90
2023-04-08T16:25:32.305Z,21.02
2023-04-08T16:28:02.151Z,20.95
2023-04-08T16:30:30.691Z,23.63
2023-04-08T16:32:59.228Z,21.35
2023-04-08T16:35:27.720Z,20.58
2023-04-08T16:37:56.306Z,20.27
2023-04-08T16:40:24.758Z,22.63
2023-04-08T16:42:53.388Z,21.35
2023-04-08T16:45:23.250Z,19.50
2023-04-08T16:47:51.816Z,20.58
2023-04-08T16:50:20.681Z,21.15
2023-04-08T16:52:49.817Z,19.67
2023-04-08T16:55:18.441Z,19.63
2023-04-08T16:57:47.662Z,19.63
2023-04-08T17:00:18.662Z,20.25
2023-04-08T17:02:50.901Z,20.92
2023-04-08T17:05:19.544Z,21.00
2023-04-08T17:07:48.023Z,21.35
2023-04-08T17:10:16.592Z,20.35
2023-04-08T17:12:45.097Z,19.75
2023-04-08T17:15:13.530Z,18.90
2023-04-08T17:17:42.026Z,17.50
2023-04-08T17:20:12.782Z,18.17
2023-04-08T17:22:41.274Z,16.35
2023-04-08T17:25:10.095Z,17.08
2023-04-08T17:27:38.532Z,17.30
2023-04-08T17:30:08.366Z,17.50
2023-04-08T17:32:37.946Z,17.55
2023-04-08T17:35:06.692Z,16.73
2023-04-08T17:37:36.669Z,18.20
2023-04-08T17:40:05.351Z,16.77
2023-04-08T17:42:33.803Z,17.65
2023-04-08T17:45:02.731Z,17.98
2023-04-08T17:47:31.207Z,18.38
2023-04-08T17:49:59.707Z,18.58
2023-04-08T17:52:28.233Z,18.00
2023-04-08T17:54:58.216Z,16.55
2023-04-08T17:57:26.683Z,18.10
2023-04-08T17:59:55.069Z,17.20
2023-04-08T18:02:23.787Z,18.42
2023-04-08T18:04:52.387Z,18.75
2023-04-08T18:07:21.019Z,18.23
2023-04-08T18:09:49.565Z,18.58
2023-04-08T18:12:19.672Z,19.67
2023-04-08T18:14:48.068Z,19.77
2023-04-08T18:17:16.520Z,19.85
2023-04-08T18:19:44.964Z,19.30
2023-04-08T18:22:13.459Z,20.63
2023-04-08T18:24:41.884Z,20.98
2023-04-08T18:27:11.296Z,20.02
2023-04-08T18:29:41.173Z,20.95
2023-04-08T18:32:09.797Z,20.40
2023-04-08T18:34:38.944Z,19.00
2023-04-08T18:37:07.458Z,19.40
2023-04-08T18:39:35.869Z,19.67
2023-04-08T18:42:04.617Z,18.92
2023-04-08T18:44:33.083Z,19.05
2023-04-08T18:47:03.088Z,20.27
2023-04-08T18:49:33.355Z,20.23
2023-04-08T18:52:03.505Z,21.45
2023-04-08T18:54:32.159Z,21.77
2023-04-08T18:57:00.761Z,20.15
2023-04-08T18:59:30.014Z,21.48
2023-04-08T19:01:58.685Z,21.33
2023-04-08T19:04:28.702Z,21.90
2023-04-08T19:06:57.478Z,21.42
2023-04-08T19:09:26.192Z,22.30
2023-04-08T19:11:54.791Z,23.52
2023-04-08T19:14:23.245Z,23.00
2023-04-08T19:16:51.770Z,22.60
2023-04-08T19:19:20.312Z,23.70
2023-04-08T19:21:50.209Z,23.60
2023-04-08T19:24:20.812Z,23.77
2023-04-08T19:26:50.834Z,26.52
2023-04-08T19:29:19.900Z,26.13
2023-04-08T19:31:48.766Z,25.23
2023-04-08T19:34:17.301Z,25.38
2023-04-08T19:36:46.547Z,28.10
2023-04-08T19:39:16.660Z,27.95
2023-04-08T19:41:45.113Z,27.55
2023-04-08T19:44:13.596Z,29.25
2023-04-08T19:46:42.192Z,30.08
2023-04-08T19:49:10.774Z,29.38
2023-04-08T19:51:39.216Z,28.65
2023-04-08T19:54:07.712Z,29.90
2023-04-08T19:56:37.510Z,26.58
2023-04-08T19:59:06.103Z,27.38
2023-04-08T20:01:35.980Z,25.90
2023-04-08T20:04:04.787Z,26.67
2023-04-08T20:06:33.668Z,27.35
2023-04-08T20:09:05.693Z,26.00
2023-04-08T20:11:34.323Z,28.45
2023-04-08T20:14:05.127Z,26.23
2023-04-08T20:16:34.182Z,28.20
2023-04-08T20:19:02.802Z,30.73
2023-04-08T20:21:31.358Z,30.60
2023-04-08T20:23:59.815Z,29.45
2023-04-08T20:26:28.773Z,28.98
2023-04-08T20:28:58.637Z,29.00
2023-04-08T20:31:29.048Z,28.63
2023-04-08T20:33:57.521Z,27.33
2023-04-08T20:36:26.008Z,26.35
2023-04-08T20:38:55.002Z,28.02
2023-04-08T20:41:25.842Z,27.42
2023-04-08T20:43:55.123Z,27.55
2023-04-08T20:46:24.559Z,28.40
2023-04-08T20:48:54.575Z,29.05
2023-04-08T20:51:23.095Z,28.55
2023-04-08T20:53:51.556Z,27.98
2023-04-08T20:56:20.002Z,27.35
2023-04-08T20:58:48.473Z,28.77
2023-04-08T21:01:17.129Z,26.33
2023-04-08T21:03:45.676Z,25.30
2023-04-08T21:06:18.973Z,25.38
2023-04-08T21:08:47.583Z,24.92
2023-04-08T21:11:17.033Z,25.75
2023-04-08T21:13:47.389Z,26.27
2023-04-08T21:16:17.527Z,26.27
2023-04-08T21:18:46.041Z,23.08
2023-04-08T21:21:14.653Z,25.73
2023-04-08T21:23:44.522Z,25.00
2023-04-08T21:26:13.588Z,24.05
2023-04-08T21:28:42.220Z,23.80
2023-04-08T21:31:11.163Z,23.73
2023-04-08T21:33:39.943Z,23.25
2023-04-08T21:36:08.941Z,22.58
2023-04-08T21:38:38.087Z,24.08
2023-04-08T21:41:07.978Z,21.25
2023-04-08T21:43:36.880Z,23.35
2023-04-08T21:46:05.936Z,22.92
2023-04-08T21:48:34.470Z,22.20
2023-04-08T21:51:02.894Z,22.80
2023-04-08T21:53:31.342Z,21.80
2023-04-08T21:55:59.900Z,22.60
2023-04-08T21:58:29.718Z,21.60
2023-04-08T22:00:58.213Z,22.67
2023-04-08T22:03:27.607Z,22.88
2023-04-08T22:05:56.288Z,23.10
2023-04-08T22:08:24.782Z,22.42
2023-04-08T22:10:53.180Z,21.15
2023-04-08T22:13:21.685Z,20.67
2023-04-08T22:15:51.474Z,22.30
2023-04-08T22:18:19.980Z,22.23
2023-04-08T22:20:48.427Z,21.80
2023-04-08T22:23:17.135Z,20.75
2023-04-08T22:25:46.169Z,20.67
2023-04-08T22:28:14.682Z,20.75
2023-04-08T22:30:43.150Z,21.52
2023-04-08T22:33:13.062Z,21.02
2023-04-08T22:35:42.634Z,22.23
2023-04-08T22:38:11.649Z,21.42
2023-04-08T22:40:40.076Z,21.77
2023-04-08T22:43:08.543Z,21.15
2023-04-08T22:45:38.306Z,22.70
2023-04-08T22:48:07.003Z,21.95
2023-04-08T22:50:37.048Z,23.33
2023-04-08T22:53:05.509Z,22.73
2023-04-08T22:55:34.017Z,24.38
2023-04-08T22:58:02.530Z,22.70
2023-04-08T23:00:30.930Z,23.33
2023-04-08T23:03:00.650Z,22.15
2023-04-08T23:05:29.215Z,23.52
2023-04-08T23:07:59.032Z,24.70
2023-04-08T23:10:27.546Z,23.38
2023-04-08T23:12:56.246Z,24.38
2023-04-08T23:15:24.713Z,24.73
2023-04-08T23:17:53.428Z,23.60
2023-04-08T23:20:21.949Z,25.05
2023-04-08T23:22:50.400Z,23.55
2023-04-08T23:25:20.344Z,23.05
2023-04-08T23:27:48.787Z,23.50
2023-04-08T23:30:17.331Z,23.27
2023-04-08T23:32:45.997Z,24.35
2023-04-08T23:35:16.478Z,24.58
2023-04-08T23:37:44.935Z,23.08
2023-04-08T23:40:13.645Z,24.30
2023-04-08T23:42:43.514Z,23.45
2023-04-08T23:45:12.387Z,24.48
2023-04-08T23:47:40.861Z,23.30
2023-04-08T23:50:09.949Z,22.98
2023-04-08T23:52:38.378Z,25.42
2023-04-08T23:55:07.151Z,25.17
2023-04-08T23:57:35.592Z,25.05
